Time;durP1;ratioP1;P1;durP2;ratioP2;P2;SDS_P1;SDS_P2;PMS_P1;PMS_P2;Temp;Humidity;BMP_temperature;BMP_pressure;BME280_temperature;BME280_humidity;BME280_pressure;Samples;Min_cycle;Max_cycle;Signal;HPM_P1;HPM_P2
2023/12/30 00:01:02;;;;;;;10.65;2.30;;;10.10;99.90;;;;;;4144628;28;20037;-69
2023/12/30 00:03:03;;;;;;;11.50;2.85;;;10.10;99.90;;;;;;4145011;28;20045;-69
2023/12/30 00:05:04;;;;;;;8.80;2.15;;;10.10;99.90;;;;;;4144985;28;20041;-71
2023/12/30 00:07:05;;;;;;;17.60;2.97;;;10.10;99.90;;;;;;4144209;28;20062;-70
2023/12/30 00:09:06;;;;;;;13.60;2.38;;;10.00;99.90;;;;;;4144893;28;20045;-69
2023/12/30 00:11:06;;;;;;;13.65;2.60;;;10.10;99.90;;;;;;4142837;28;20497;-70
2023/12/30 00:13:07;;;;;;;8.27;2.10;;;10.10;99.90;;;;;;4143719;28;20034;-70
2023/12/30 00:15:08;;;;;;;10.43;2.28;;;10.10;99.90;;;;;;4139666;28;20038;-70
2023/12/30 00:17:08;;;;;;;8.73;2.30;;;10.10;99.90;;;;;;4141153;28;20045;-69
2023/12/30 00:19:11;;;;;;;9.23;2.30;;;10.10;99.90;;;;;;4140909;28;20529;-70
2023/12/30 00:21:12;;;;;;;11.52;2.35;;;10.10;99.90;;;;;;4143795;28;20407;-69
2023/12/30 00:23:13;;;;;;;11.40;2.55;;;10.00;99.90;;;;;;4145225;28;20026;-69
2023/12/30 00:25:14;;;;;;;7.88;1.77;;;10.00;99.90;;;;;;4135594;28;20087;-70
2023/12/30 00:27:14;;;;;;;9.32;1.98;;;10.10;99.90;;;;;;4144779;28;20062;-70
2023/12/30 00:29:15;;;;;;;13.30;2.47;;;10.00;99.90;;;;;;4134498;28;20054;-69
2023/12/30 00:31:25;;;;;;;12.63;2.17;;;10.00;99.90;;;;;;4141517;28;20486;-70
2023/12/30 00:33:26;;;;;;;10.38;2.28;;;10.00;99.90;;;;;;4141950;28;20036;-69
2023/12/30 00:35:27;;;;;;;7.85;2.17;;;10.00;99.90;;;;;;4143892;28;20513;-69
2023/12/30 00:37:27;;;;;;;12.45;2.13;;;10.00;99.90;;;;;;4145206;28;20363;-69
2023/12/30 00:39:28;;;;;;;10.25;2.47;;;10.00;99.90;;;;;;4147782;28;20169;-69
2023/12/30 00:41:29;;;;;;;10.30;2.55;;;10.00;99.90;;;;;;4145316;28;20068;-69
2023/12/30 00:43:29;;;;;;;17.15;3.47;;;10.00;99.90;;;;;;4146898;28;20458;-69
2023/12/30 00:45:30;;;;;;;9.00;1.80;;;9.90;99.90;;;;;;4138607;28;20034;-69
2023/12/30 00:47:30;;;;;;;11.57;2.67;;;9.90;99.90;;;;;;4129796;28;20046;-69
2023/12/30 00:49:31;;;;;;;9.13;2.30;;;9.90;99.90;;;;;;4143007;28;20046;-70
2023/12/30 00:51:31;;;;;;;6.85;2.13;;;9.80;99.90;;;;;;4145650;28;20042;-69
2023/12/30 00:53:32;;;;;;;12.27;2.30;;;9.80;99.90;;;;;;4136517;28;20038;-69
2023/12/30 00:55:32;;;;;;;11.82;3.08;;;9.80;99.90;;;;;;4131415;28;20054;-69
2023/12/30 00:57:33;;;;;;;8.60;2.38;;;9.80;99.90;;;;;;4128123;28;20038;-69
2023/12/30 00:59:34;;;;;;;9.93;2.22;;;9.80;99.90;;;;;;4143110;28;20169;-69
2023/12/30 01:01:34;;;;;;;11.63;2.60;;;9.70;99.90;;;;;;4130966;28;20505;-69
2023/12/30 01:03:35;;;;;;;14.95;2.63;;;9.70;99.90;;;;;;4132006;28;20121;-69
2023/12/30 01:05:36;;;;;;;16.25;3.17;;;9.70;99.90;;;;;;4141612;28;20453;-69
2023/12/30 01:07:36;;;;;;;24.33;3.72;;;9.70;99.90;;;;;;4147354;28;20065;-69
2023/12/30 01:09:37;;;;;;;11.02;2.58;;;9.70;99.90;;;;;;4155692;28;20037;-69
2023/12/30 01:11:37;;;;;;;12.73;2.97;;;9.60;99.90;;;;;;4146623;28;20065;-73
2023/12/30 01:13:38;;;;;;;11.90;2.58;;;9.60;99.90;;;;;;4147290;28;21761;-73
2023/12/30 01:15:38;;;;;;;11.52;3.17;;;9.60;99.90;;;;;;4146297;28;20490;-73
2023/12/30 01:17:39;;;;;;;11.68;2.50;;;9.60;99.90;;;;;;4147255;28;20394;-73
2023/12/30 01:19:39;;;;;;;11.57;2.38;;;9.60;99.90;;;;;;4143452;28;20034;-73
2023/12/30 01:21:40;;;;;;;11.40;2.35;;;9.60;99.90;;;;;;4146824;28;20034;-73
2023/12/30 01:23:41;;;;;;;11.98;2.75;;;9.50;99.90;;;;;;4147661;28;20038;-73
2023/12/30 01:25:42;;;;;;;9.27;2.10;;;9.50;99.90;;;;;;4142289;28;20112;-73
2023/12/30 01:27:42;;;;;;;13.52;2.83;;;9.60;99.90;;;;;;4134768;28;20053;-74
2023/12/30 01:29:43;;;;;;;10.75;2.45;;;9.50;99.90;;;;;;4147537;28;20038;-73
2023/12/30 01:31:43;;;;;;;12.18;2.13;;;9.50;99.90;;;;;;4144244;28;20049;-73
2023/12/30 01:33:44;;;;;;;8.43;2.15;;;9.50;99.90;;;;;;4146152;28;20038;-73
2023/12/30 01:35:44;;;;;;;15.65;2.85;;;9.50;99.90;;;;;;4155113;28;20076;-73
2023/12/30 01:37:45;;;;;;;8.57;2.00;;;9.50;99.90;;;;;;4157512;28;20041;-72
2023/12/30 01:39:46;;;;;;;10.38;2.15;;;9.50;99.90;;;;;;4135977;28;20068;-73
2023/12/30 01:41:49;;;;;;;12.10;2.40;;;9.50;99.90;;;;;;4146335;28;20445;-73
2023/12/30 01:43:49;;;;;;;11.85;2.42;;;9.50;99.90;;;;;;4134344;28;20038;-74
2023/12/30 01:45:52;;;;;;;13.30;2.40;;;9.50;99.90;;;;;;4151603;28;20041;-73
2023/12/30 01:47:53;;;;;;;11.52;2.38;;;9.50;99.90;;;;;;4145398;28;20049;-73
2023/12/30 01:49:53;;;;;;;7.40;2.40;;;9.50;99.90;;;;;;4142903;28;20041;-73
2023/12/30 01:51:54;;;;;;;13.05;2.35;;;9.50;99.90;;;;;;4159336;28;20529;-73
2023/12/30 01:53:57;;;;;;;13.82;2.80;;;9.50;99.90;;;;;;4144866;28;20038;-73
2023/12/30 01:55:58;;;;;;;11.30;2.10;;;9.50;99.90;;;;;;4144273;28;20058;-73
2023/12/30 01:57:59;;;;;;;14.18;3.03;;;9.50;99.90;;;;;;4133156;28;20364;-73
2023/12/30 02:00:01;;;;;;;9.65;2.03;;;9.50;99.90;;;;;;4127494;28;20093;-73
2023/12/30 02:02:02;;;;;;;12.80;2.45;;;9.50;99.90;;;;;;4146347;28;20095;-73
2023/12/30 02:04:03;;;;;;;13.32;2.75;;;9.50;99.90;;;;;;4146787;28;20034;-74
2023/12/30 02:06:04;;;;;;;8.02;1.95;;;9.50;99.90;;;;;;4138059;28;20126;-73
2023/12/30 02:08:05;;;;;;;10.07;2.15;;;9.40;99.90;;;;;;4146665;28;20087;-73
2023/12/30 02:10:05;;;;;;;13.80;2.47;;;9.40;99.90;;;;;;4131683;28;20447;-73
2023/12/30 02:12:06;;;;;;;12.43;2.83;;;9.40;99.90;;;;;;4145465;28;20486;-74
2023/12/30 02:14:27;;;;;;;10.38;2.10;;;9.50;99.90;;;;;;4132163;28;20027;-73
2023/12/30 02:16:28;;;;;;;10.63;2.22;;;9.40;99.90;;;;;;4142289;28;20042;-73
2023/12/30 02:18:28;;;;;;;9.30;2.10;;;9.40;99.90;;;;;;4145891;28;20545;-73
2023/12/30 02:20:33;;;;;;;15.00;2.92;;;9.40;99.90;;;;;;4134748;28;21541;-73
2023/12/30 02:22:34;;;;;;;11.20;2.30;;;9.50;99.90;;;;;;4142409;28;20383;-63
2023/12/30 02:24:34;;;;;;;12.77;2.45;;;9.50;99.90;;;;;;4139370;28;20035;-63
2023/12/30 02:26:35;;;;;;;10.20;2.47;;;9.40;99.90;;;;;;4154679;28;20038;-63
2023/12/30 02:28:35;;;;;;;8.82;2.47;;;9.40;99.90;;;;;;4139946;28;20069;-63
2023/12/30 02:30:36;;;;;;;8.75;2.67;;;9.40;99.90;;;;;;4143728;28;20379;-63
2023/12/30 02:32:37;;;;;;;7.72;1.88;;;9.40;99.90;;;;;;4148162;28;20037;-63
2023/12/30 02:34:37;;;;;;;13.48;2.60;;;9.50;99.90;;;;;;4147681;28;20057;-63
2023/12/30 02:36:38;;;;;;;11.43;2.15;;;9.40;99.90;;;;;;4144973;28;20038;-63
2023/12/30 02:38:39;;;;;;;9.43;2.35;;;9.40;99.90;;;;;;4144190;28;20071;-63
2023/12/30 02:40:39;;;;;;;11.05;2.30;;;9.40;99.90;;;;;;4145264;28;20129;-63
2023/12/30 02:42:40;;;;;;;13.13;2.80;;;9.40;99.90;;;;;;4142146;28;20034;-63
2023/12/30 02:44:41;;;;;;;10.13;1.98;;;9.40;99.90;;;;;;4144725;28;20147;-63
2023/12/30 02:46:41;;;;;;;5.85;1.60;;;9.40;99.90;;;;;;4140255;28;20474;-63
2023/12/30 02:48:42;;;;;;;7.00;1.90;;;9.40;99.90;;;;;;4139949;28;20045;-63
2023/12/30 02:50:43;;;;;;;13.27;2.42;;;9.40;99.90;;;;;;4140547;28;20045;-63
2023/12/30 02:52:43;;;;;;;10.68;2.17;;;9.40;99.90;;;;;;4141195;28;20398;-63
2023/12/30 02:54:44;;;;;;;15.98;2.75;;;9.40;99.90;;;;;;4141576;28;20065;-63
2023/12/30 02:56:44;;;;;;;15.50;2.47;;;9.40;99.90;;;;;;4137100;28;20046;-63
2023/12/30 02:58:52;;;;;;;13.00;2.33;;;9.40;99.90;;;;;;4159001;28;20057;-63
2023/12/30 03:00:53;;;;;;;11.38;2.20;;;9.40;99.90;;;;;;4143480;28;20423;-63
2023/12/30 03:02:53;;;;;;;14.00;2.25;;;9.40;99.90;;;;;;4139249;28;20122;-63
2023/12/30 03:04:54;;;;;;;11.27;2.17;;;9.40;99.90;;;;;;4144402;28;20048;-63
2023/12/30 03:06:54;;;;;;;13.93;2.45;;;9.40;99.90;;;;;;4135777;28;20177;-63
2023/12/30 03:08:55;;;;;;;10.73;2.40;;;9.40;99.90;;;;;;4143536;28;20037;-63
2023/12/30 03:10:56;;;;;;;10.32;2.55;;;9.40;99.90;;;;;;4139548;28;20034;-63
2023/12/30 03:12:57;;;;;;;8.00;2.05;;;9.40;99.90;;;;;;4136435;28;20037;-63
2023/12/30 03:14:57;;;;;;;12.88;2.33;;;9.40;99.90;;;;;;4139003;28;20042;-63
2023/12/30 03:16:58;;;;;;;9.65;2.05;;;9.40;99.90;;;;;;4136365;28;20136;-63
2023/12/30 03:18:59;;;;;;;16.88;2.15;;;9.40;99.90;;;;;;4141017;28;20040;-63
2023/12/30 03:20:59;;;;;;;9.43;2.25;;;9.40;99.90;;;;;;4137862;28;20035;-63
2023/12/30 03:23:00;;;;;;;13.20;2.42;;;9.40;99.90;;;;;;4135699;28;20070;-63
2023/12/30 03:25:01;;;;;;;9.38;2.45;;;9.40;99.90;;;;;;4144139;28;20038;-63
2023/12/30 03:27:03;;;;;;;11.80;2.50;;;9.40;99.90;;;;;;4143995;28;20033;-63
2023/12/30 03:29:03;;;;;;;7.90;2.25;;;9.40;99.90;;;;;;4138367;28;20077;-63
2023/12/30 03:31:06;;;;;;;11.80;2.83;;;9.40;99.90;;;;;;4143632;28;20674;-66
2023/12/30 03:33:07;;;;;;;9.77;1.98;;;9.40;99.90;;;;;;4143093;28;20473;-64
2023/12/30 03:35:08;;;;;;;13.20;2.03;;;9.40;99.90;;;;;;4142953;28;20034;-66
2023/12/30 03:37:08;;;;;;;9.43;2.20;;;9.40;99.90;;;;;;4144619;28;20057;-65
2023/12/30 03:39:10;;;;;;;9.65;2.05;;;9.50;99.90;;;;;;4136542;28;20053;-65
2023/12/30 03:41:10;;;;;;;7.03;1.75;;;9.40;99.90;;;;;;4138404;28;20041;-65
2023/12/30 03:43:12;;;;;;;10.63;2.78;;;9.40;99.90;;;;;;4137780;28;20038;-65
2023/12/30 03:45:13;;;;;;;7.30;2.25;;;9.40;99.90;;;;;;4133537;28;20439;-66
2023/12/30 03:47:13;;;;;;;12.38;2.60;;;9.40;99.90;;;;;;4140562;28;20046;-66
2023/12/30 03:49:14;;;;;;;11.68;2.25;;;9.40;99.90;;;;;;4140585;28;20125;-65
2023/12/30 03:51:15;;;;;;;11.18;2.33;;;9.40;99.90;;;;;;4140583;28;20035;-65
2023/12/30 03:53:15;;;;;;;12.15;2.33;;;9.40;99.90;;;;;;4140324;28;20382;-66
2023/12/30 03:55:16;;;;;;;14.70;3.03;;;9.40;99.90;;;;;;4141458;28;20045;-65
2023/12/30 03:57:16;;;;;;;9.57;2.10;;;9.40;99.90;;;;;;4144625;28;20045;-65
2023/12/30 03:59:17;;;;;;;7.85;2.17;;;9.40;99.90;;;;;;4140411;28;20501;-65
2023/12/30 04:01:18;;;;;;;12.60;2.30;;;9.40;99.90;;;;;;4139719;28;20026;-66
2023/12/30 04:03:19;;;;;;;7.35;2.00;;;9.40;99.90;;;;;;4137351;28;20083;-66
2023/12/30 04:05:19;;;;;;;12.15;2.42;;;9.40;99.90;;;;;;4136076;28;20038;-66
2023/12/30 04:07:20;;;;;;;5.93;2.05;;;9.40;99.90;;;;;;4137499;28;20104;-67
2023/12/30 04:09:20;;;;;;;9.90;1.85;;;9.40;99.90;;;;;;4130059;28;20030;-66
2023/12/30 04:11:21;;;;;;;10.40;1.92;;;9.40;99.90;;;;;;4132760;28;20390;-66
2023/12/30 04:13:21;;;;;;;8.45;2.22;;;9.40;99.90;;;;;;4141810;28;20441;-66
2023/12/30 04:15:22;;;;;;;8.07;1.63;;;9.40;99.90;;;;;;4138488;28;20065;-66
2023/12/30 04:17:23;;;;;;;10.85;2.33;;;9.40;99.90;;;;;;4139508;28;20041;-66
2023/12/30 04:19:24;;;;;;;12.80;2.10;;;9.40;99.90;;;;;;4137190;28;20417;-66
2023/12/30 04:21:24;;;;;;;9.48;2.25;;;9.40;99.90;;;;;;4139761;28;20042;-66
2023/12/30 04:23:26;;;;;;;13.32;2.33;;;9.40;99.90;;;;;;4140290;28;20034;-66
2023/12/30 04:25:26;;;;;;;12.43;2.33;;;9.40;99.90;;;;;;4139493;28;20416;-66
2023/12/30 04:27:27;;;;;;;5.38;1.63;;;9.40;99.90;;;;;;4125409;28;20038;-66
2023/12/30 04:29:28;;;;;;;7.72;2.45;;;9.40;99.90;;;;;;4132911;28;20034;-66
2023/12/30 04:31:29;;;;;;;10.63;2.10;;;9.30;99.90;;;;;;4137546;28;20416;-66
2023/12/30 04:33:30;;;;;;;10.80;2.30;;;9.30;99.90;;;;;;4142588;28;20109;-65
2023/12/30 04:35:30;;;;;;;13.52;2.38;;;9.40;99.90;;;;;;4142345;28;20038;-66
2023/12/30 04:37:31;;;;;;;7.63;1.95;;;9.30;99.90;;;;;;4144085;28;20113;-65
2023/12/30 04:39:31;;;;;;;10.40;2.45;;;9.30;99.90;;;;;;4142258;28;20041;-65
2023/12/30 04:41:32;;;;;;;17.05;2.45;;;9.40;99.90;;;;;;4143467;28;20152;-82
2023/12/30 04:43:32;;;;;;;7.72;2.05;;;9.40;99.90;;;;;;4143058;28;20034;-81
2023/12/30 04:45:33;;;;;;;11.88;2.70;;;9.40;99.90;;;;;;4143612;28;20038;-81
2023/12/30 04:47:33;;;;;;;9.95;2.25;;;9.40;99.90;;;;;;4143093;28;20046;-81
2023/12/30 04:49:34;;;;;;;12.35;2.15;;;9.40;99.90;;;;;;4141771;28;20050;-81
2023/12/30 04:51:36;;;;;;;10.27;2.00;;;9.40;99.90;;;;;;4142686;28;20095;-81
2023/12/30 04:53:37;;;;;;;8.53;1.70;;;9.30;99.90;;;;;;4143970;28;20493;-81
2023/12/30 04:55:37;;;;;;;11.13;2.00;;;9.30;99.90;;;;;;4142438;28;20300;-81
2023/12/30 04:57:39;;;;;;;8.00;2.20;;;9.40;99.90;;;;;;4143778;28;20029;-81
2023/12/30 04:59:39;;;;;;;14.68;2.75;;;9.40;99.90;;;;;;4142476;28;20081;-81
2023/12/30 05:01:40;;;;;;;12.48;2.75;;;9.30;99.90;;;;;;4142403;28;20072;-81
2023/12/30 05:03:42;;;;;;;12.00;2.30;;;9.30;99.90;;;;;;4141898;28;20045;-81
2023/12/30 05:05:43;;;;;;;6.50;1.70;;;9.30;99.90;;;;;;4143137;28;20175;-81
2023/12/30 05:07:43;;;;;;;12.40;2.22;;;9.30;99.90;;;;;;4135518;28;20038;-81
2023/12/30 05:09:44;;;;;;;13.30;3.05;;;9.30;99.90;;;;;;4125781;28;20058;-81
2023/12/30 05:11:45;;;;;;;8.98;1.85;;;9.30;99.90;;;;;;4139132;28;20042;-81
2023/12/30 05:13:46;;;;;;;9.43;2.08;;;9.20;99.90;;;;;;4140294;28;20046;-81
2023/12/30 05:15:46;;;;;;;10.40;2.35;;;9.30;99.90;;;;;;4127028;28;20054;-81
2023/12/30 05:17:47;;;;;;;13.63;2.30;;;9.20;99.90;;;;;;4124958;28;20542;-82
2023/12/30 05:19:47;;;;;;;12.30;2.47;;;9.20;99.90;;;;;;4140442;28;20070;-80
2023/12/30 05:21:51;;;;;;;7.93;2.17;;;9.20;99.90;;;;;;4142801;28;20041;-81
2023/12/30 05:23:52;;;;;;;13.10;2.35;;;9.20;99.90;;;;;;4144129;28;20038;-80
2023/12/30 05:25:52;;;;;;;9.23;2.33;;;9.20;99.90;;;;;;4144132;28;20117;-82
2023/12/30 05:27:53;;;;;;;14.45;2.47;;;9.10;99.90;;;;;;4143968;28;20034;-81
2023/12/30 05:29:53;;;;;;;14.07;2.20;;;9.20;99.90;;;;;;4142568;28;20054;-81
2023/12/30 05:31:55;;;;;;;13.40;2.55;;;9.10;99.90;;;;;;4145331;28;20042;-81
2023/12/30 05:33:56;;;;;;;6.15;1.80;;;9.10;99.90;;;;;;4145851;28;20560;-80
2023/12/30 05:35:56;;;;;;;8.75;2.08;;;9.10;99.90;;;;;;4144963;28;20041;-81
2023/12/30 05:37:57;;;;;;;15.00;2.35;;;9.10;99.90;;;;;;4140129;28;20520;-81
2023/12/30 05:39:57;;;;;;;7.20;1.73;;;9.10;99.90;;;;;;4141607;28;20456;-80
2023/12/30 05:41:58;;;;;;;9.20;1.92;;;9.10;99.90;;;;;;4145629;28;20053;-81
2023/12/30 05:43:59;;;;;;;8.27;1.80;;;9.10;99.90;;;;;;4136749;28;20041;-81
2023/12/30 05:45:59;;;;;;;8.35;2.00;;;9.10;99.90;;;;;;4156870;28;20040;-80
2023/12/30 05:48:01;;;;;;;14.10;2.78;;;9.10;99.90;;;;;;4152809;28;20465;-80
2023/12/30 05:50:02;;;;;;;10.77;2.22;;;9.10;99.90;;;;;;4141768;28;20498;-81
2023/12/30 05:52:03;;;;;;;15.18;2.70;;;9.10;99.90;;;;;;4140004;28;20042;-67
2023/12/30 05:54:04;;;;;;;13.98;2.00;;;9.10;99.90;;;;;;4139243;28;20072;-67
2023/12/30 05:56:04;;;;;;;10.70;2.42;;;9.10;99.90;;;;;;4145418;28;20046;-67
2023/12/30 05:58:05;;;;;;;9.15;2.17;;;9.10;99.90;;;;;;4137002;28;20050;-67
2023/12/30 06:00:08;;;;;;;11.32;2.05;;;9.20;99.90;;;;;;4144491;28;20528;-68
2023/12/30 06:02:08;;;;;;;10.35;2.08;;;9.20;99.90;;;;;;4145190;28;20107;-67
2023/12/30 06:04:09;;;;;;;7.28;1.95;;;9.20;99.90;;;;;;4140499;28;22581;-67
2023/12/30 06:06:09;;;;;;;8.60;2.40;;;9.20;99.90;;;;;;4138830;28;20041;-67
2023/12/30 06:08:10;;;;;;;9.55;2.15;;;9.20;99.90;;;;;;4145759;28;20046;-67
2023/12/30 06:10:11;;;;;;;16.77;2.78;;;9.20;99.90;;;;;;4138287;28;20046;-68
2023/12/30 06:12:11;;;;;;;9.10;2.08;;;9.20;99.90;;;;;;4144090;28;20037;-67
2023/12/30 06:14:12;;;;;;;8.27;2.35;;;9.30;99.90;;;;;;4133407;28;20398;-67
2023/12/30 06:16:12;;;;;;;13.88;2.65;;;9.30;99.90;;;;;;4144276;28;20045;-67
2023/12/30 06:18:13;;;;;;;11.27;2.13;;;9.30;99.90;;;;;;4136217;28;20045;-67
2023/12/30 06:20:13;;;;;;;9.98;2.65;;;9.30;99.90;;;;;;4143176;28;20496;-67
2023/12/30 06:22:14;;;;;;;13.18;2.25;;;9.30;99.90;;;;;;4141958;28;20042;-67
2023/12/30 06:24:14;;;;;;;12.60;2.20;;;9.20;99.90;;;;;;4144725;28;20034;-66
2023/12/30 06:26:15;;;;;;;5.72;1.88;;;9.30;99.90;;;;;;4144319;28;20045;-67
2023/12/30 06:28:16;;;;;;;10.00;2.28;;;9.30;99.90;;;;;;4134381;28;20026;-67
2023/12/30 06:30:17;;;;;;;9.80;2.30;;;9.30;99.90;;;;;;4137328;28;20088;-67
2023/12/30 06:32:17;;;;;;;12.55;3.08;;;9.30;99.90;;;;;;4137947;28;20025;-67
2023/12/30 06:34:18;;;;;;;10.77;3.17;;;9.30;99.90;;;;;;4142451;28;20034;-67
2023/12/30 06:36:23;;;;;;;10.40;2.60;;;9.30;99.90;;;;;;4133568;28;20517;-67
2023/12/30 06:38:23;;;;;;;9.98;2.60;;;9.30;99.90;;;;;;4128648;28;20038;-67
2023/12/30 06:40:24;;;;;;;11.65;2.30;;;9.30;99.90;;;;;;4138021;28;20448;-67
2023/12/30 06:42:24;;;;;;;15.60;2.63;;;9.20;99.90;;;;;;4129058;28;20042;-67
2023/12/30 06:44:25;;;;;;;9.07;2.80;;;9.20;99.90;;;;;;4131277;28;20038;-67
2023/12/30 06:46:26;;;;;;;7.40;2.50;;;9.30;99.90;;;;;;4144574;28;20045;-66
2023/12/30 06:48:27;;;;;;;11.70;2.47;;;9.20;99.90;;;;;;4140451;28;20038;-67
2023/12/30 06:50:27;;;;;;;11.93;2.30;;;9.20;99.90;;;;;;4150338;28;20042;-67
2023/12/30 06:52:28;;;;;;;8.32;2.60;;;9.20;99.90;;;;;;4145218;28;20038;-67
2023/12/30 06:54:28;;;;;;;9.40;2.20;;;9.30;99.90;;;;;;4144659;28;20093;-66
2023/12/30 06:56:29;;;;;;;9.50;2.00;;;9.30;99.90;;;;;;4139284;28;20046;-67
2023/12/30 06:58:31;;;;;;;9.32;1.63;;;9.30;99.90;;;;;;4142739;28;20133;-67
2023/12/30 07:00:31;;;;;;;8.90;2.47;;;9.30;99.90;;;;;;4133515;28;20097;-67
2023/12/30 07:02:32;;;;;;;10.98;2.33;;;9.30;99.90;;;;;;4140088;28;20442;-73
2023/12/30 07:04:32;;;;;;;10.05;2.20;;;9.30;99.90;;;;;;4142050;28;20039;-72
2023/12/30 07:06:33;;;;;;;8.52;1.95;;;9.40;99.90;;;;;;4139640;28;20038;-73
2023/12/30 07:08:33;;;;;;;9.32;2.30;;;9.30;99.90;;;;;;4136788;28;20695;-72
2023/12/30 07:10:34;;;;;;;6.43;1.40;;;9.30;99.90;;;;;;4136331;28;20125;-72
2023/12/30 07:12:35;;;;;;;8.10;2.00;;;9.30;99.90;;;;;;4137681;28;20038;-72
2023/12/30 07:14:37;;;;;;;8.15;2.25;;;9.30;99.90;;;;;;4143271;28;20095;-72
2023/12/30 07:16:38;;;;;;;9.50;2.10;;;9.20;99.90;;;;;;4137278;28;20439;-72
2023/12/30 07:18:39;;;;;;;7.78;2.35;;;9.20;99.90;;;;;;4142209;28;20093;-72
2023/12/30 07:20:40;;;;;;;6.70;1.90;;;9.20;99.90;;;;;;4139500;28;20386;-71
2023/12/30 07:22:41;;;;;;;8.40;1.85;;;9.20;99.90;;;;;;4141277;28;20041;-72
2023/12/30 07:24:42;;;;;;;13.85;2.88;;;9.20;99.90;;;;;;4144823;28;20466;-73
2023/12/30 07:26:42;;;;;;;10.38;2.03;;;9.20;99.90;;;;;;4143491;28;20042;-72
2023/12/30 07:28:43;;;;;;;8.93;2.40;;;9.20;99.90;;;;;;4143041;28;20046;-73
2023/12/30 07:30:43;;;;;;;11.23;2.20;;;9.10;99.90;;;;;;4143642;28;20084;-75
2023/12/30 07:32:44;;;;;;;6.40;1.73;;;9.10;99.90;;;;;;4139342;28;20080;-75
2023/12/30 07:34:45;;;;;;;7.57;1.75;;;9.10;99.90;;;;;;4144347;28;20042;-75
2023/12/30 07:36:45;;;;;;;9.73;2.13;;;9.10;99.90;;;;;;4137849;28;20053;-75
2023/12/30 07:38:46;;;;;;;8.48;2.15;;;9.10;99.90;;;;;;4139724;28;20048;-76
2023/12/30 07:40:47;;;;;;;7.70;2.13;;;9.10;99.90;;;;;;4138944;28;20041;-76
2023/12/30 07:42:47;;;;;;;17.92;2.67;;;9.10;99.90;;;;;;4142369;28;20038;-74
2023/12/30 07:44:48;;;;;;;9.77;2.08;;;9.10;99.90;;;;;;4143632;28;20116;-76
2023/12/30 07:46:48;;;;;;;8.65;1.77;;;9.10;99.90;;;;;;4133174;28;20045;-75
2023/12/30 07:48:49;;;;;;;5.93;1.88;;;9.10;99.90;;;;;;4131427;28;20124;-75
2023/12/30 07:50:49;;;;;;;12.23;2.75;;;9.10;99.90;;;;;;4137393;28;20597;-75
2023/12/30 07:52:50;;;;;;;7.28;1.65;;;9.10;99.90;;;;;;4136151;28;20049;-75
2023/12/30 07:54:51;;;;;;;9.50;2.45;;;9.10;99.90;;;;;;4140958;28;20092;-75
2023/12/30 07:56:51;;;;;;;7.75;2.20;;;9.10;99.90;;;;;;4141382;28;20600;-73
2023/12/30 07:58:52;;;;;;;8.48;2.35;;;9.10;99.90;;;;;;4138987;28;20111;-75
2023/12/30 08:00:53;;;;;;;9.20;2.53;;;9.10;99.90;;;;;;4139608;28;20398;-75
2023/12/30 08:02:53;;;;;;;8.68;2.47;;;9.00;99.90;;;;;;4143506;28;20117;-75
2023/12/30 08:04:56;;;;;;;6.97;2.10;;;9.10;99.90;;;;;;4143180;28;20026;-75
2023/12/30 08:06:56;;;;;;;5.95;1.92;;;9.00;99.90;;;;;;4138268;28;20046;-75
2023/12/30 08:08:57;;;;;;;8.45;2.25;;;9.10;99.90;;;;;;4139526;28;20034;-75
2023/12/30 08:11:00;;;;;;;12.07;2.65;;;9.10;99.90;;;;;;4139088;28;20030;-67
2023/12/30 08:13:01;;;;;;;9.95;2.10;;;9.00;99.90;;;;;;4143130;28;20029;-76
2023/12/30 08:15:02;;;;;;;14.35;2.40;;;9.00;99.90;;;;;;4143225;28;20042;-75
2023/12/30 08:17:03;;;;;;;8.00;2.30;;;9.10;99.90;;;;;;4144151;28;20077;-75
2023/12/30 08:19:04;;;;;;;9.80;2.60;;;9.00;99.90;;;;;;4141594;28;20045;-76
2023/12/30 08:21:05;;;;;;;8.15;2.20;;;9.10;99.90;;;;;;4140380;28;20034;-75
2023/12/30 08:23:06;;;;;;;11.95;2.30;;;9.10;99.90;;;;;;4145197;28;20496;-76
2023/12/30 08:25:08;;;;;;;16.48;2.85;;;9.10;99.90;;;;;;4141189;28;20504;-75
2023/12/30 08:27:09;;;;;;;10.80;2.50;;;9.10;99.90;;;;;;4140441;28;20037;-76
2023/12/30 08:29:10;;;;;;;11.93;2.30;;;9.10;99.90;;;;;;4141941;28;20041;-75
2023/12/30 08:31:10;;;;;;;7.03;2.33;;;9.10;99.90;;;;;;4141191;28;20497;-75
2023/12/30 08:33:11;;;;;;;9.18;2.45;;;9.20;99.90;;;;;;4145049;28;20464;-75
2023/12/30 08:35:13;;;;;;;9.80;2.13;;;9.10;99.90;;;;;;4150739;28;20083;-75
2023/12/30 08:37:13;;;;;;;7.43;1.85;;;9.20;99.90;;;;;;4137295;28;20052;-75
2023/12/30 08:39:14;;;;;;;11.30;2.10;;;9.20;99.90;;;;;;4133809;28;20486;-76
2023/12/30 08:41:14;;;;;;;6.32;1.90;;;9.20;99.90;;;;;;4146641;28;20042;-75
2023/12/30 08:43:15;;;;;;;10.43;2.35;;;9.20;99.90;;;;;;4140712;28;20037;-75
2023/12/30 08:45:18;;;;;;;9.43;2.28;;;9.20;99.90;;;;;;4142346;28;20470;-76
2023/12/30 08:47:19;;;;;;;17.73;2.75;;;9.20;99.90;;;;;;4138973;28;20441;-75
2023/12/30 08:49:19;;;;;;;11.35;2.72;;;9.20;99.90;;;;;;4135536;28;20030;-75
2023/12/30 08:51:20;;;;;;;7.00;1.95;;;9.20;99.90;;;;;;4143931;28;20509;-75
2023/12/30 08:53:24;;;;;;;15.80;2.90;;;9.20;99.90;;;;;;4144887;28;20351;-76
2023/12/30 08:55:25;;;;;;;12.90;2.38;;;9.20;99.90;;;;;;4137081;28;20125;-75
2023/12/30 08:57:25;;;;;;;11.82;2.30;;;9.20;99.90;;;;;;4138950;28;20065;-75
2023/12/30 08:59:26;;;;;;;8.60;2.50;;;9.20;99.90;;;;;;4135659;28;20544;-75
2023/12/30 09:01:27;;;;;;;10.15;2.40;;;9.20;99.90;;;;;;4139498;28;20042;-75
2023/12/30 09:03:27;;;;;;;12.95;3.00;;;9.20;99.90;;;;;;4137831;28;20037;-75
2023/12/30 09:05:28;;;;;;;9.00;2.30;;;9.20;99.90;;;;;;4132621;28;20502;-75
2023/12/30 09:07:29;;;;;;;8.90;2.38;;;9.20;99.90;;;;;;4133744;28;20117;-75
2023/12/30 09:09:30;;;;;;;10.38;2.05;;;9.20;99.90;;;;;;4147218;28;20038;-75
2023/12/30 09:11:32;;;;;;;7.00;2.05;;;9.30;99.90;;;;;;4131800;28;20129;-75
2023/12/30 09:13:33;;;;;;;14.65;2.38;;;9.30;99.90;;;;;;4132470;28;20391;-75
2023/12/30 09:15:34;;;;;;;7.60;2.25;;;9.30;99.90;;;;;;4129103;28;20035;-75
2023/12/30 09:17:34;;;;;;;17.73;3.00;;;9.30;99.90;;;;;;4130941;28;20060;-76
2023/12/30 09:19:35;;;;;;;12.18;2.42;;;9.30;99.90;;;;;;4132413;28;20038;-76
2023/12/30 09:21:36;;;;;;;13.43;2.70;;;9.30;99.90;;;;;;4140113;28;20034;-64
2023/12/30 09:23:37;;;;;;;11.35;2.75;;;9.30;99.90;;;;;;4148666;28;20034;-64
2023/12/30 09:25:38;;;;;;;12.30;2.53;;;9.30;99.90;;;;;;4145037;28;20038;-64
2023/12/30 09:27:38;;;;;;;9.13;2.00;;;9.30;99.90;;;;;;4141120;28;20030;-64
2023/12/30 09:29:39;;;;;;;6.82;1.75;;;9.30;99.90;;;;;;4146894;28;20045;-64
2023/12/30 09:31:39;;;;;;;12.70;2.40;;;9.30;99.90;;;;;;4143577;28;20070;-64
2023/12/30 09:33:40;;;;;;;9.98;2.55;;;9.40;99.90;;;;;;4147382;28;20042;-63
2023/12/30 09:35:40;;;;;;;8.85;2.35;;;9.30;99.90;;;;;;4145027;28;20491;-64
2023/12/30 09:37:41;;;;;;;14.48;3.03;;;9.40;99.90;;;;;;4148580;28;20040;-64
2023/12/30 09:39:42;;;;;;;9.02;2.47;;;9.40;99.90;;;;;;4144479;28;20038;-64
2023/12/30 09:41:43;;;;;;;10.73;2.33;;;9.40;99.90;;;;;;4136176;28;20043;-64
2023/12/30 09:43:44;;;;;;;12.73;3.28;;;9.40;99.90;;;;;;4147574;28;21169;-63
2023/12/30 09:45:45;;;;;;;13.00;3.25;;;9.40;99.90;;;;;;4144287;28;20505;-64
2023/12/30 09:47:48;;;;;;;11.75;3.28;;;9.40;99.90;;;;;;4146195;28;20049;-64
2023/12/30 09:49:48;;;;;;;12.45;3.03;;;9.50;99.90;;;;;;4147885;28;20494;-64
2023/12/30 09:51:49;;;;;;;12.48;2.88;;;9.40;99.90;;;;;;4144099;28;20041;-64
2023/12/30 09:53:50;;;;;;;10.65;2.58;;;9.40;99.90;;;;;;4144910;28;20415;-64
2023/12/30 09:55:51;;;;;;;15.45;3.97;;;9.40;99.90;;;;;;4138518;28;20038;-64
2023/12/30 09:57:51;;;;;;;9.35;2.60;;;9.50;99.90;;;;;;4142929;28;20045;-64
2023/12/30 09:59:54;;;;;;;9.70;2.65;;;9.50;99.90;;;;;;4145854;28;20113;-63
2023/12/30 10:01:55;;;;;;;10.00;2.42;;;9.50;99.90;;;;;;4141842;28;20485;-65
2023/12/30 10:03:56;;;;;;;10.88;2.50;;;9.50;99.90;;;;;;4146372;28;20045;-64
2023/12/30 10:06:03;;;;;;;10.10;3.05;;;9.50;99.90;;;;;;4143802;28;20045;-64
2023/12/30 10:08:04;;;;;;;10.90;2.47;;;9.50;99.90;;;;;;4144448;28;20069;-64
2023/12/30 10:10:06;;;;;;;10.13;2.83;;;9.50;99.90;;;;;;4142485;28;20544;-64
2023/12/30 10:12:09;;;;;;;17.83;3.22;;;9.50;99.90;;;;;;4142184;28;20126;-64
2023/12/30 10:14:10;;;;;;;17.58;3.35;;;9.60;99.90;;;;;;4146114;28;20390;-63
2023/12/30 10:16:12;;;;;;;10.25;2.25;;;9.50;99.90;;;;;;4143382;28;20034;-63
2023/12/30 10:18:15;;;;;;;11.65;2.70;;;9.60;99.90;;;;;;4144071;28;20545;-63
2023/12/30 10:20:23;;;;;;;12.25;2.72;;;9.60;99.90;;;;;;4141680;28;20087;-64
2023/12/30 10:22:23;;;;;;;5.40;1.92;;;9.60;99.90;;;;;;4143961;28;20049;-63
2023/12/30 10:24:25;;;;;;;10.98;2.35;;;9.60;99.90;;;;;;4144403;28;20038;-64
2023/12/30 10:26:25;;;;;;;12.18;2.78;;;9.60;99.90;;;;;;4140361;28;20030;-64
2023/12/30 10:28:27;;;;;;;11.98;2.60;;;9.60;99.90;;;;;;4134886;28;20824;-64
2023/12/30 10:30:30;;;;;;;15.88;2.80;;;9.60;99.90;;;;;;4132997;28;20954;-64
2023/12/30 10:32:30;;;;;;;14.32;2.80;;;9.60;99.90;;;;;;4135705;28;20505;-76